sensor_id;sensor_type;location;lat;lon;timestamp;pressure;altitude;pressure_sealevel;temperature;humidity
34961;BME280;30789;52.030;7.110;2023-04-27T00:02:01;101260.06;;;3.92;74.14
34961;BME280;30789;52.030;7.110;2023-04-27T00:04:27;101268.06;;;3.89;74.95
34961;BME280;30789;52.030;7.110;2023-04-27T00:06:55;101259.75;;;3.85;74.80
34961;BME280;30789;52.030;7.110;2023-04-27T00:09:21;101258.66;;;3.78;75.21
34961;BME280;30789;52.030;7.110;2023-04-27T00:11:48;101252.53;;;3.81;75.39
34961;BME280;30789;52.030;7.110;2023-04-27T00:14:14;101258.00;;;3.81;75.45
34961;BME280;30789;52.030;7.110;2023-04-27T00:16:41;101266.00;;;3.86;74.97
34961;BME280;30789;52.030;7.110;2023-04-27T00:19:07;101263.00;;;3.79;74.85
34961;BME280;30789;52.030;7.110;2023-04-27T00:21:34;101259.31;;;3.66;75.00
34961;BME280;30789;52.030;7.110;2023-04-27T00:24:02;101263.81;;;3.62;75.53
34961;BME280;30789;52.030;7.110;2023-04-27T00:26:28;101265.44;;;3.54;75.37
34961;BME280;30789;52.030;7.110;2023-04-27T00:28:55;101273.91;;;3.70;75.02
34961;BME280;30789;52.030;7.110;2023-04-27T00:31:22;101266.97;;;3.73;75.03
34961;BME280;30789;52.030;7.110;2023-04-27T00:33:48;101267.53;;;3.49;75.36
34961;BME280;30789;52.030;7.110;2023-04-27T00:36:14;101268.50;;;3.44;75.68
34961;BME280;30789;52.030;7.110;2023-04-27T00:38:41;101269.63;;;3.35;76.23
34961;BME280;30789;52.030;7.110;2023-04-27T00:41:09;101271.53;;;3.34;76.37
34961;BME280;30789;52.030;7.110;2023-04-27T00:43:41;101271.72;;;3.38;75.89
34961;BME280;30789;52.030;7.110;2023-04-27T00:46:08;101266.06;;;3.51;75.86
34961;BME280;30789;52.030;7.110;2023-04-27T00:48:34;101276.16;;;3.51;75.72
34961;BME280;30789;52.030;7.110;2023-04-27T00:51:01;101280.19;;;3.45;76.01
34961;BME280;30789;52.030;7.110;2023-04-27T00:53:28;101279.72;;;3.43;75.53
34961;BME280;30789;52.030;7.110;2023-04-27T00:55:55;101279.22;;;3.49;75.35
34961;BME280;30789;52.030;7.110;2023-04-27T00:58:24;101281.97;;;3.41;75.50
34961;BME280;30789;52.030;7.110;2023-04-27T01:00:51;101289.16;;;3.28;75.35
34961;BME280;30789;52.030;7.110;2023-04-27T01:03:18;101286.91;;;3.22;75.90
34961;BME280;30789;52.030;7.110;2023-04-27T01:05:44;101281.63;;;3.08;76.51
34961;BME280;30789;52.030;7.110;2023-04-27T01:08:10;101283.41;;;3.04;76.79
34961;BME280;30789;52.030;7.110;2023-04-27T01:10:37;101292.69;;;3.20;76.01
34961;BME280;30789;52.030;7.110;2023-04-27T01:13:03;101288.34;;;2.85;77.17
34961;BME280;30789;52.030;7.110;2023-04-27T01:15:31;101287.06;;;2.74;77.92
34961;BME280;30789;52.030;7.110;2023-04-27T01:17:58;101290.75;;;2.87;77.79
34961;BME280;30789;52.030;7.110;2023-04-27T01:20:25;101287.72;;;2.97;76.88
34961;BME280;30789;52.030;7.110;2023-04-27T01:22:54;101285.97;;;3.01;76.48
34961;BME280;30789;52.030;7.110;2023-04-27T01:25:22;101301.03;;;2.98;76.43
34961;BME280;30789;52.030;7.110;2023-04-27T01:27:49;101294.59;;;2.77;77.34
34961;BME280;30789;52.030;7.110;2023-04-27T01:30:15;101291.88;;;2.77;77.42
34961;BME280;30789;52.030;7.110;2023-04-27T01:32:42;101290.44;;;2.71;77.95
34961;BME280;30789;52.030;7.110;2023-04-27T01:35:08;101293.16;;;2.80;77.36
34961;BME280;30789;52.030;7.110;2023-04-27T01:37:35;101289.63;;;2.71;77.81
34961;BME280;30789;52.030;7.110;2023-04-27T01:40:02;101302.09;;;2.72;77.82
34961;BME280;30789;52.030;7.110;2023-04-27T01:42:32;101292.03;;;2.81;77.27
34961;BME280;30789;52.030;7.110;2023-04-27T01:44:58;101304.19;;;2.75;77.28
34961;BME280;30789;52.030;7.110;2023-04-27T01:47:25;101305.00;;;2.75;77.20
34961;BME280;30789;52.030;7.110;2023-04-27T01:49:52;101312.47;;;2.70;77.22
34961;BME280;30789;52.030;7.110;2023-04-27T01:52:18;101306.75;;;2.71;77.17
34961;BME280;30789;52.030;7.110;2023-04-27T01:54:45;101307.84;;;2.62;77.46
34961;BME280;30789;52.030;7.110;2023-04-27T01:57:11;101305.13;;;2.70;77.42
34961;BME280;30789;52.030;7.110;2023-04-27T01:59:39;101296.00;;;2.75;77.01
34961;BME280;30789;52.030;7.110;2023-04-27T02:02:06;101296.34;;;2.73;76.90
34961;BME280;30789;52.030;7.110;2023-04-27T02:04:32;101297.47;;;2.81;76.74
34961;BME280;30789;52.030;7.110;2023-04-27T02:07:00;101301.00;;;2.81;76.68
34961;BME280;30789;52.030;7.110;2023-04-27T02:09:27;101299.06;;;2.73;76.67
34961;BME280;30789;52.030;7.110;2023-04-27T02:11:53;101311.66;;;2.61;77.20
34961;BME280;30789;52.030;7.110;2023-04-27T02:14:20;101308.13;;;2.52;77.57
34961;BME280;30789;52.030;7.110;2023-04-27T02:16:48;101314.22;;;2.57;77.26
34961;BME280;30789;52.030;7.110;2023-04-27T02:19:14;101306.16;;;2.35;77.45
34961;BME280;30789;52.030;7.110;2023-04-27T02:21:41;101311.78;;;2.39;77.68
34961;BME280;30789;52.030;7.110;2023-04-27T02:24:08;101311.34;;;2.54;76.81
34961;BME280;30789;52.030;7.110;2023-04-27T02:26:35;101310.38;;;2.58;76.51
34961;BME280;30789;52.030;7.110;2023-04-27T02:29:01;101298.03;;;2.44;76.91
34961;BME280;30789;52.030;7.110;2023-04-27T02:31:28;101305.34;;;2.35;77.22
34961;BME280;30789;52.030;7.110;2023-04-27T02:33:56;101300.41;;;2.37;77.12
34961;BME280;30789;52.030;7.110;2023-04-27T02:36:22;101300.75;;;2.44;76.83
34961;BME280;30789;52.030;7.110;2023-04-27T02:38:49;101294.06;;;2.50;76.90
34961;BME280;30789;52.030;7.110;2023-04-27T02:41:15;101299.25;;;2.38;77.16
34961;BME280;30789;52.030;7.110;2023-04-27T02:43:42;101292.06;;;2.33;77.40
34961;BME280;30789;52.030;7.110;2023-04-27T02:46:08;101289.00;;;2.35;77.38
34961;BME280;30789;52.030;7.110;2023-04-27T02:48:35;101289.19;;;2.38;76.82
34961;BME280;30789;52.030;7.110;2023-04-27T02:51:03;101281.81;;;2.30;76.91
34961;BME280;30789;52.030;7.110;2023-04-27T02:53:30;101279.09;;;2.30;77.20
34961;BME280;30789;52.030;7.110;2023-04-27T02:55:56;101289.66;;;2.32;77.44
34961;BME280;30789;52.030;7.110;2023-04-27T02:58:23;101276.88;;;2.32;77.20
34961;BME280;30789;52.030;7.110;2023-04-27T03:00:53;101281.66;;;2.27;77.32
34961;BME280;30789;52.030;7.110;2023-04-27T03:03:20;101279.88;;;2.22;77.35
34961;BME280;30789;52.030;7.110;2023-04-27T03:05:46;101268.38;;;2.25;77.28
34961;BME280;30789;52.030;7.110;2023-04-27T03:08:14;101269.31;;;2.21;77.46
34961;BME280;30789;52.030;7.110;2023-04-27T03:10:41;101272.94;;;2.16;77.80
34961;BME280;30789;52.030;7.110;2023-04-27T03:13:07;101271.81;;;2.09;77.83
34961;BME280;30789;52.030;7.110;2023-04-27T03:15:33;101279.00;;;2.05;78.01
34961;BME280;30789;52.030;7.110;2023-04-27T03:18:00;101281.09;;;2.16;77.57
34961;BME280;30789;52.030;7.110;2023-04-27T03:20:26;101273.91;;;2.12;77.45
34961;BME280;30789;52.030;7.110;2023-04-27T03:22:53;101280.47;;;2.11;77.79
34961;BME280;30789;52.030;7.110;2023-04-27T03:25:21;101279.19;;;2.08;77.86
34961;BME280;30789;52.030;7.110;2023-04-27T03:27:47;101268.25;;;2.00;77.75
34961;BME280;30789;52.030;7.110;2023-04-27T03:30:15;101267.50;;;2.08;77.32
34961;BME280;30789;52.030;7.110;2023-04-27T03:32:41;101267.94;;;2.01;77.44
34961;BME280;30789;52.030;7.110;2023-04-27T03:35:08;101274.38;;;2.05;77.53
34961;BME280;30789;52.030;7.110;2023-04-27T03:37:34;101267.16;;;2.01;77.25
34961;BME280;30789;52.030;7.110;2023-04-27T03:40:01;101273.03;;;1.94;78.15
34961;BME280;30789;52.030;7.110;2023-04-27T03:42:31;101278.16;;;1.96;77.90
34961;BME280;30789;52.030;7.110;2023-04-27T03:44:57;101274.28;;;1.88;78.36
34961;BME280;30789;52.030;7.110;2023-04-27T03:47:23;101284.66;;;1.86;78.25
34961;BME280;30789;52.030;7.110;2023-04-27T03:49:50;101288.00;;;1.83;78.74
34961;BME280;30789;52.030;7.110;2023-04-27T03:52:16;101291.56;;;1.92;78.27
34961;BME280;30789;52.030;7.110;2023-04-27T03:54:43;101293.13;;;1.85;78.21
34961;BME280;30789;52.030;7.110;2023-04-27T03:57:09;101300.31;;;1.81;78.17
34961;BME280;30789;52.030;7.110;2023-04-27T03:59:37;101303.78;;;1.81;77.80
34961;BME280;30789;52.030;7.110;2023-04-27T04:02:04;101295.31;;;1.52;78.13
34961;BME280;30789;52.030;7.110;2023-04-27T04:04:30;101310.50;;;1.31;79.26
34961;BME280;30789;52.030;7.110;2023-04-27T04:06:57;101301.31;;;1.40;79.32
34961;BME280;30789;52.030;7.110;2023-04-27T04:09:23;101301.50;;;1.44;79.18
34961;BME280;30789;52.030;7.110;2023-04-27T04:11:50;101307.25;;;1.42;79.94
34961;BME280;30789;52.030;7.110;2023-04-27T04:14:16;101307.28;;;1.51;79.23
34961;BME280;30789;52.030;7.110;2023-04-27T04:16:44;101316.09;;;1.56;78.98
34961;BME280;30789;52.030;7.110;2023-04-27T04:19:11;101310.50;;;1.53;78.85
34961;BME280;30789;52.030;7.110;2023-04-27T04:21:38;101304.25;;;1.52;78.66
34961;BME280;30789;52.030;7.110;2023-04-27T04:24:05;101309.88;;;1.56;78.46
34961;BME280;30789;52.030;7.110;2023-04-27T04:26:31;101301.91;;;1.59;78.32
34961;BME280;30789;52.030;7.110;2023-04-27T04:28:58;101314.28;;;1.65;78.63
34961;BME280;30789;52.030;7.110;2023-04-27T04:31:25;101321.78;;;1.46;79.04
34961;BME280;30789;52.030;7.110;2023-04-27T04:33:53;101324.44;;;1.60;78.92
34961;BME280;30789;52.030;7.110;2023-04-27T04:36:20;101324.22;;;1.70;78.63
34961;BME280;30789;52.030;7.110;2023-04-27T04:38:46;101335.38;;;1.68;78.29
34961;BME280;30789;52.030;7.110;2023-04-27T04:41:13;101327.59;;;1.53;79.09
34961;BME280;30789;52.030;7.110;2023-04-27T04:43:39;101332.09;;;1.58;79.11
34961;BME280;30789;52.030;7.110;2023-04-27T04:46:06;101327.97;;;1.60;78.61
34961;BME280;30789;52.030;7.110;2023-04-27T04:48:32;101324.44;;;1.82;78.39
34961;BME280;30789;52.030;7.110;2023-04-27T04:51:03;101326.69;;;1.89;77.88
34961;BME280;30789;52.030;7.110;2023-04-27T04:53:30;101325.06;;;1.79;78.20
34961;BME280;30789;52.030;7.110;2023-04-27T04:55:56;101322.91;;;1.67;78.69
34961;BME280;30789;52.030;7.110;2023-04-27T04:58:23;101331.63;;;1.56;79.35
34961;BME280;30789;52.030;7.110;2023-04-27T05:00:49;101326.34;;;1.59;79.41
34961;BME280;30789;52.030;7.110;2023-04-27T05:03:16;101324.75;;;1.81;79.28
34961;BME280;30789;52.030;7.110;2023-04-27T05:05:42;101319.25;;;1.94;78.98
34961;BME280;30789;52.030;7.110;2023-04-27T05:08:10;101326.53;;;1.85;79.46
34961;BME280;30789;52.030;7.110;2023-04-27T05:10:36;101333.69;;;1.81;79.13
34961;BME280;30789;52.030;7.110;2023-04-27T05:13:03;101340.28;;;1.89;79.27
34961;BME280;30789;52.030;7.110;2023-04-27T05:15:29;101342.63;;;2.04;79.04
34961;BME280;30789;52.030;7.110;2023-04-27T05:17:56;101345.50;;;2.07;79.10
34961;BME280;30789;52.030;7.110;2023-04-27T05:20:23;101343.25;;;2.01;79.36
34961;BME280;30789;52.030;7.110;2023-04-27T05:22:49;101354.78;;;2.06;79.81
34961;BME280;30789;52.030;7.110;2023-04-27T05:25:17;101359.28;;;2.11;79.42
34961;BME280;30789;52.030;7.110;2023-04-27T05:27:44;101350.19;;;2.15;79.67
34961;BME280;30789;52.030;7.110;2023-04-27T05:30:12;101352.47;;;2.22;79.85
34961;BME280;30789;52.030;7.110;2023-04-27T05:32:38;101350.41;;;2.27;79.47
34961;BME280;30789;52.030;7.110;2023-04-27T05:35:05;101351.94;;;2.42;79.31
34961;BME280;30789;52.030;7.110;2023-04-27T05:37:32;101340.75;;;2.52;78.77
34961;BME280;30789;52.030;7.110;2023-04-27T05:39:58;101351.31;;;2.45;79.32
34961;BME280;30789;52.030;7.110;2023-04-27T05:42:26;101351.19;;;2.58;79.63
34961;BME280;30789;52.030;7.110;2023-04-27T05:44:53;101352.78;;;2.59;79.24
34961;BME280;30789;52.030;7.110;2023-04-27T05:47:19;101355.88;;;2.66;79.64
34961;BME280;30789;52.030;7.110;2023-04-27T05:49:49;101355.41;;;2.73;79.89
34961;BME280;30789;52.030;7.110;2023-04-27T05:52:15;101358.97;;;2.82;79.60
34961;BME280;30789;52.030;7.110;2023-04-27T05:54:45;101362.00;;;2.89;79.78
34961;BME280;30789;52.030;7.110;2023-04-27T05:57:11;101362.19;;;3.01;79.35
34961;BME280;30789;52.030;7.110;2023-04-27T05:59:39;101366.69;;;3.05;79.51
34961;BME280;30789;52.030;7.110;2023-04-27T06:02:06;101362.22;;;3.18;79.26
34961;BME280;30789;52.030;7.110;2023-04-27T06:04:33;101363.03;;;3.27;79.21
34961;BME280;30789;52.030;7.110;2023-04-27T06:07:00;101360.31;;;3.44;78.42
34961;BME280;30789;52.030;7.110;2023-04-27T06:09:29;101356.34;;;3.59;77.85
34961;BME280;30789;52.030;7.110;2023-04-27T06:11:55;101359.47;;;3.95;76.87
34961;BME280;30789;52.030;7.110;2023-04-27T06:14:23;101365.03;;;4.24;75.73
34961;BME280;30789;52.030;7.110;2023-04-27T06:16:51;101372.94;;;4.63;72.98
34961;BME280;30789;52.030;7.110;2023-04-27T06:19:18;101359.69;;;4.73;72.85
34961;BME280;30789;52.030;7.110;2023-04-27T06:21:45;101362.47;;;4.94;72.64
34961;BME280;30789;52.030;7.110;2023-04-27T06:24:11;101368.44;;;5.16;70.97
34961;BME280;30789;52.030;7.110;2023-04-27T06:26:38;101357.38;;;5.33;70.38
34961;BME280;30789;52.030;7.110;2023-04-27T06:29:04;101365.66;;;5.25;70.66
34961;BME280;30789;52.030;7.110;2023-04-27T06:31:32;101367.25;;;5.26;71.09
34961;BME280;30789;52.030;7.110;2023-04-27T06:33:59;101361.97;;;5.42;70.19
34961;BME280;30789;52.030;7.110;2023-04-27T06:36:26;101363.63;;;5.75;68.76
34961;BME280;30789;52.030;7.110;2023-04-27T06:38:53;101365.53;;;5.83;68.13
34961;BME280;30789;52.030;7.110;2023-04-27T06:41:20;101359.63;;;5.93;67.44
34961;BME280;30789;52.030;7.110;2023-04-27T06:43:47;101350.09;;;5.99;67.31
34961;BME280;30789;52.030;7.110;2023-04-27T06:46:14;101369.78;;;5.93;67.32
34961;BME280;30789;52.030;7.110;2023-04-27T06:48:41;101358.09;;;6.16;65.79
34961;BME280;30789;52.030;7.110;2023-04-27T06:51:09;101347.97;;;6.29;65.54
34961;BME280;30789;52.030;7.110;2023-04-27T06:53:35;101357.81;;;6.30;65.30
34961;BME280;30789;52.030;7.110;2023-04-27T06:56:02;101358.84;;;6.37;64.81
34961;BME280;30789;52.030;7.110;2023-04-27T06:58:28;101359.53;;;6.58;62.74
34961;BME280;30789;52.030;7.110;2023-04-27T07:00:55;101355.91;;;6.54;63.17
34961;BME280;30789;52.030;7.110;2023-04-27T07:03:21;101352.56;;;6.49;62.77
34961;BME280;30789;52.030;7.110;2023-04-27T07:05:48;101353.72;;;6.72;60.97
34961;BME280;30789;52.030;7.110;2023-04-27T07:08:17;101348.72;;;6.74;61.67
34961;BME280;30789;52.030;7.110;2023-04-27T07:10:43;101350.19;;;6.83;60.91
34961;BME280;30789;52.030;7.110;2023-04-27T07:13:09;101348.81;;;6.89;61.25
34961;BME280;30789;52.030;7.110;2023-04-27T07:15:36;101353.47;;;7.01;61.40
34961;BME280;30789;52.030;7.110;2023-04-27T07:18:03;101352.88;;;7.20;61.18
34961;BME280;30789;52.030;7.110;2023-04-27T07:20:29;101354.38;;;7.17;60.24
34961;BME280;30789;52.030;7.110;2023-04-27T07:22:56;101357.69;;;7.11;59.32
34961;BME280;30789;52.030;7.110;2023-04-27T07:25:24;101357.34;;;7.12;58.03
34961;BME280;30789;52.030;7.110;2023-04-27T07:27:50;101362.56;;;7.41;58.76
34961;BME280;30789;52.030;7.110;2023-04-27T07:30:17;101347.25;;;7.40;58.05
34961;BME280;30789;52.030;7.110;2023-04-27T07:32:43;101355.38;;;7.37;57.18
34961;BME280;30789;52.030;7.110;2023-04-27T07:35:11;101350.22;;;7.35;56.61
34961;BME280;30789;52.030;7.110;2023-04-27T07:37:37;101363.00;;;7.43;56.43
34961;BME280;30789;52.030;7.110;2023-04-27T07:40:05;101359.22;;;7.48;57.03
34961;BME280;30789;52.030;7.110;2023-04-27T07:42:37;101352.13;;;7.47;56.46
34961;BME280;30789;52.030;7.110;2023-04-27T07:45:06;101352.78;;;7.56;56.93
34961;BME280;30789;52.030;7.110;2023-04-27T07:47:33;101362.34;;;7.74;56.35
34961;BME280;30789;52.030;7.110;2023-04-27T07:49:59;101364.16;;;7.70;56.26
34961;BME280;30789;52.030;7.110;2023-04-27T07:52:26;101368.66;;;7.90;54.74
34961;BME280;30789;52.030;7.110;2023-04-27T07:54:52;101364.22;;;8.13;55.86
34961;BME280;30789;52.030;7.110;2023-04-27T07:57:19;101374.41;;;8.12;56.17
34961;BME280;30789;52.030;7.110;2023-04-27T07:59:47;101373.06;;;8.22;54.16
34961;BME280;30789;52.030;7.110;2023-04-27T08:02:13;101381.66;;;8.20;52.55
34961;BME280;30789;52.030;7.110;2023-04-27T08:04:40;101377.22;;;8.16;54.23
34961;BME280;30789;52.030;7.110;2023-04-27T08:07:06;101369.56;;;8.21;53.46
34961;BME280;30789;52.030;7.110;2023-04-27T08:09:33;101379.53;;;8.41;54.53
34961;BME280;30789;52.030;7.110;2023-04-27T08:11:59;101366.50;;;8.54;50.84
34961;BME280;30789;52.030;7.110;2023-04-27T08:14:27;101375.66;;;8.74;51.88
34961;BME280;30789;52.030;7.110;2023-04-27T08:16:55;101371.38;;;8.76;51.99
34961;BME280;30789;52.030;7.110;2023-04-27T08:19:21;101374.84;;;8.89;52.29
34961;BME280;30789;52.030;7.110;2023-04-27T08:21:48;101375.53;;;8.86;52.92
34961;BME280;30789;52.030;7.110;2023-04-27T08:24:14;101374.63;;;8.97;51.38
34961;BME280;30789;52.030;7.110;2023-04-27T08:26:40;101366.59;;;8.73;50.30
34961;BME280;30789;52.030;7.110;2023-04-27T08:29:07;101372.25;;;8.96;50.66
34961;BME280;30789;52.030;7.110;2023-04-27T08:31:33;101378.59;;;9.15;50.62
34961;BME280;30789;52.030;7.110;2023-04-27T08:34:01;101374.69;;;9.16;49.06
34961;BME280;30789;52.030;7.110;2023-04-27T08:36:28;101370.34;;;9.15;49.61
34961;BME280;30789;52.030;7.110;2023-04-27T08:38:54;101372.31;;;9.15;50.35
34961;BME280;30789;52.030;7.110;2023-04-27T08:41:22;101374.06;;;9.23;47.65
34961;BME280;30789;52.030;7.110;2023-04-27T08:43:50;101378.63;;;9.34;48.92
34961;BME280;30789;52.030;7.110;2023-04-27T08:46:17;101372.69;;;9.32;49.94
34961;BME280;30789;52.030;7.110;2023-04-27T08:48:45;101371.56;;;9.33;49.54
34961;BME280;30789;52.030;7.110;2023-04-27T08:51:14;101362.00;;;9.46;48.03
34961;BME280;30789;52.030;7.110;2023-04-27T08:53:47;101372.22;;;9.65;48.45
34961;BME280;30789;52.030;7.110;2023-04-27T08:56:14;101372.16;;;9.61;47.62
34961;BME280;30789;52.030;7.110;2023-04-27T08:58:41;101374.19;;;9.64;48.27
34961;BME280;30789;52.030;7.110;2023-04-27T09:01:07;101372.91;;;9.77;46.90
34961;BME280;30789;52.030;7.110;2023-04-27T09:03:35;101370.00;;;10.08;46.91
34961;BME280;30789;52.030;7.110;2023-04-27T09:06:02;101367.38;;;10.15;45.61
34961;BME280;30789;52.030;7.110;2023-04-27T09:08:39;101377.53;;;10.11;45.46
34961;BME280;30789;52.030;7.110;2023-04-27T09:11:06;101379.31;;;10.23;45.74
34961;BME280;30789;52.030;7.110;2023-04-27T09:13:37;101374.06;;;10.14;47.24
34961;BME280;30789;52.030;7.110;2023-04-27T09:16:04;101361.97;;;10.42;46.16
34961;BME280;30789;52.030;7.110;2023-04-27T09:18:34;101362.38;;;10.66;46.74
34961;BME280;30789;52.030;7.110;2023-04-27T09:21:02;101359.34;;;10.97;45.79
34961;BME280;30789;52.030;7.110;2023-04-27T09:23:31;101353.94;;;11.04;45.21
34961;BME280;30789;52.030;7.110;2023-04-27T09:25:59;101361.91;;;11.09;46.07
34961;BME280;30789;52.030;7.110;2023-04-27T09:28:27;101357.94;;;10.84;44.14
34961;BME280;30789;52.030;7.110;2023-04-27T09:30:56;101349.44;;;10.93;47.02
34961;BME280;30789;52.030;7.110;2023-04-27T09:33:24;101341.72;;;11.31;47.02
34961;BME280;30789;52.030;7.110;2023-04-27T09:35:50;101340.88;;;11.27;45.13
34961;BME280;30789;52.030;7.110;2023-04-27T09:38:17;101340.38;;;11.48;45.80
34961;BME280;30789;52.030;7.110;2023-04-27T09:40:46;101339.03;;;11.64;45.10
34961;BME280;30789;52.030;7.110;2023-04-27T09:43:13;101340.41;;;11.81;45.05
34961;BME280;30789;52.030;7.110;2023-04-27T09:45:40;101336.72;;;11.70;42.98
34961;BME280;30789;52.030;7.110;2023-04-27T09:48:07;101338.41;;;11.78;45.16
34961;BME280;30789;52.030;7.110;2023-04-27T09:50:34;101343.72;;;11.93;44.45
34961;BME280;30789;52.030;7.110;2023-04-27T09:53:05;101344.31;;;11.76;43.04
34961;BME280;30789;52.030;7.110;2023-04-27T09:55:39;101340.84;;;12.63;43.89
34961;BME280;30789;52.030;7.110;2023-04-27T09:58:31;101335.81;;;13.26;40.74
34961;BME280;30789;52.030;7.110;2023-04-27T10:01:07;101333.78;;;14.09;41.59
34961;BME280;30789;52.030;7.110;2023-04-27T10:03:42;101340.63;;;14.47;39.00
34961;BME280;30789;52.030;7.110;2023-04-27T10:06:43;101332.38;;;15.93;34.61
34961;BME280;30789;52.030;7.110;2023-04-27T10:09:19;101333.03;;;16.21;33.44
34961;BME280;30789;52.030;7.110;2023-04-27T10:11:48;101332.34;;;16.03;34.66
34961;BME280;30789;52.030;7.110;2023-04-27T10:14:18;101329.06;;;15.18;34.62
34961;BME280;30789;52.030;7.110;2023-04-27T10:16:46;101333.00;;;15.31;31.78
34961;BME280;30789;52.030;7.110;2023-04-27T10:19:15;101329.03;;;15.47;33.08
34961;BME280;30789;52.030;7.110;2023-04-27T10:21:55;101327.97;;;16.02;32.40
34961;BME280;30789;52.030;7.110;2023-04-27T10:24:33;101325.09;;;15.41;33.57
34961;BME280;30789;52.030;7.110;2023-04-27T10:27:03;101320.97;;;15.77;33.47
34961;BME280;30789;52.030;7.110;2023-04-27T10:29:36;101320.03;;;16.01;36.21
34961;BME280;30789;52.030;7.110;2023-04-27T10:32:08;101317.81;;;17.28;31.93
34961;BME280;30789;52.030;7.110;2023-04-27T10:34:35;101316.91;;;17.01;33.35
34961;BME280;30789;52.030;7.110;2023-04-27T10:37:06;101314.72;;;17.19;31.49
34961;BME280;30789;52.030;7.110;2023-04-27T10:39:43;101312.09;;;17.05;30.23
34961;BME280;30789;52.030;7.110;2023-04-27T10:42:10;101304.66;;;17.32;31.37
34961;BME280;30789;52.030;7.110;2023-04-27T10:44:38;101301.06;;;17.65;32.28
34961;BME280;30789;52.030;7.110;2023-04-27T10:47:12;101298.50;;;18.08;30.18
34961;BME280;30789;52.030;7.110;2023-04-27T10:49:39;101313.22;;;18.35;30.83
34961;BME280;30789;52.030;7.110;2023-04-27T10:52:05;101303.28;;;18.07;31.84
34961;BME280;30789;52.030;7.110;2023-04-27T10:54:32;101299.69;;;18.83;28.85
34961;BME280;30789;52.030;7.110;2023-04-27T10:57:06;101303.28;;;18.07;28.54
34961;BME280;30789;52.030;7.110;2023-04-27T10:59:33;101295.59;;;16.84;28.45
34961;BME280;30789;52.030;7.110;2023-04-27T11:02:02;101289.81;;;17.05;28.49
34961;BME280;30789;52.030;7.110;2023-04-27T11:04:36;101293.81;;;17.38;30.08
34961;BME280;30789;52.030;7.110;2023-04-27T11:07:04;101289.41;;;17.40;31.88
34961;BME280;30789;52.030;7.110;2023-04-27T11:09:30;101283.66;;;16.83;32.48
34961;BME280;30789;52.030;7.110;2023-04-27T11:11:58;101284.84;;;17.87;31.28
34961;BME280;30789;52.030;7.110;2023-04-27T11:14:24;101291.84;;;17.72;31.71
34961;BME280;30789;52.030;7.110;2023-04-27T11:16:51;101292.94;;;17.78;30.27
34961;BME280;30789;52.030;7.110;2023-04-27T11:19:19;101296.53;;;18.81;26.85
34961;BME280;30789;52.030;7.110;2023-04-27T11:21:46;101285.06;;;18.26;29.51
34961;BME280;30789;52.030;7.110;2023-04-27T11:24:12;101287.41;;;17.74;31.08
34961;BME280;30789;52.030;7.110;2023-04-27T11:26:39;101291.22;;;18.14;30.72
34961;BME280;30789;52.030;7.110;2023-04-27T11:29:07;101295.44;;;19.18;28.04
34961;BME280;30789;52.030;7.110;2023-04-27T11:31:39;101285.34;;;19.47;26.98
34961;BME280;30789;52.030;7.110;2023-04-27T11:34:06;101286.78;;;19.12;29.08
34961;BME280;30789;52.030;7.110;2023-04-27T11:36:34;101281.69;;;17.55;29.78
34961;BME280;30789;52.030;7.110;2023-04-27T11:39:00;101281.19;;;18.69;29.25
34961;BME280;30789;52.030;7.110;2023-04-27T11:41:33;101289.69;;;19.67;26.46
34961;BME280;30789;52.030;7.110;2023-04-27T11:44:04;101286.06;;;20.22;27.31
34961;BME280;30789;52.030;7.110;2023-04-27T11:46:32;101294.75;;;20.92;24.40
34961;BME280;30789;52.030;7.110;2023-04-27T11:49:01;101282.94;;;20.68;24.35
34961;BME280;30789;52.030;7.110;2023-04-27T11:51:29;101282.69;;;20.30;24.55
34961;BME280;30789;52.030;7.110;2023-04-27T11:54:00;101284.88;;;20.39;25.20
34961;BME280;30789;52.030;7.110;2023-04-27T11:56:35;101280.22;;;20.16;26.52
34961;BME280;30789;52.030;7.110;2023-04-27T11:59:02;101284.69;;;20.62;25.85
34961;BME280;30789;52.030;7.110;2023-04-27T12:01:30;101276.56;;;20.19;25.66
34961;BME280;30789;52.030;7.110;2023-04-27T12:03:56;101272.84;;;20.06;27.65
34961;BME280;30789;52.030;7.110;2023-04-27T12:06:24;101274.22;;;19.63;28.81
34961;BME280;30789;52.030;7.110;2023-04-27T12:08:50;101263.38;;;19.65;28.05
34961;BME280;30789;52.030;7.110;2023-04-27T12:11:19;101274.53;;;20.36;26.84
34961;BME280;30789;52.030;7.110;2023-04-27T12:13:47;101268.50;;;19.08;26.90
34961;BME280;30789;52.030;7.110;2023-04-27T12:16:14;101266.91;;;19.49;29.60
34961;BME280;30789;52.030;7.110;2023-04-27T12:18:40;101268.25;;;20.32;27.42
34961;BME280;30789;52.030;7.110;2023-04-27T12:21:07;101260.69;;;20.77;24.31
34961;BME280;30789;52.030;7.110;2023-04-27T12:23:34;101252.59;;;19.99;24.89
34961;BME280;30789;52.030;7.110;2023-04-27T12:26:01;101260.06;;;19.70;24.96
34961;BME280;30789;52.030;7.110;2023-04-27T12:28:28;101258.44;;;19.33;24.48
34961;BME280;30789;52.030;7.110;2023-04-27T12:30:55;101261.41;;;19.03;26.57
34961;BME280;30789;52.030;7.110;2023-04-27T12:33:22;101254.59;;;18.85;29.20
34961;BME280;30789;52.030;7.110;2023-04-27T12:35:49;101252.78;;;19.56;27.22
34961;BME280;30789;52.030;7.110;2023-04-27T12:38:16;101254.78;;;18.51;27.80
34961;BME280;30789;52.030;7.110;2023-04-27T12:40:42;101254.13;;;18.43;28.26
34961;BME280;30789;52.030;7.110;2023-04-27T12:43:09;101247.25;;;18.48;27.91
34961;BME280;30789;52.030;7.110;2023-04-27T12:45:38;101252.72;;;18.55;28.23
34961;BME280;30789;52.030;7.110;2023-04-27T12:48:05;101241.69;;;17.38;27.90
34961;BME280;30789;52.030;7.110;2023-04-27T12:50:32;101243.75;;;17.91;30.08
34961;BME280;30789;52.030;7.110;2023-04-27T12:52:59;101240.81;;;18.01;30.16
34961;BME280;30789;52.030;7.110;2023-04-27T12:55:25;101237.72;;;19.11;29.34
34961;BME280;30789;52.030;7.110;2023-04-27T12:57:52;101237.16;;;19.39;28.92
34961;BME280;30789;52.030;7.110;2023-04-27T13:00:19;101239.66;;;19.53;26.36